Time;durP1;ratioP1;P1;durP2;ratioP2;P2;SDS_P1;SDS_P2;PMS_P1;PMS_P2;Temp;Humidity;BMP_temperature;BMP_pressure;BME280_temperature;BME280_humidity;BME280_pressure;Samples;Min_cycle;Max_cycle;Signal;HPM_P1;HPM_P2
2021/03/04 00:02:07;;;;;;;14.38;11.82;;;8.80;67.20;;;;;;5053034;28;20287;-82
2021/03/04 00:04:34;;;;;;;18.73;12.82;;;8.80;67.10;;;;;;5051854;28;20269;-82
2021/03/04 00:07:02;;;;;;;16.60;12.27;;;8.80;67.20;;;;;;5040510;28;20247;-83
2021/03/04 00:09:30;;;;;;;14.35;11.60;;;8.90;67.00;;;;;;5046304;28;20196;-82
2021/03/04 00:11:57;;;;;;;21.40;11.07;;;8.90;66.20;;;;;;5040143;28;20601;-83
2021/03/04 00:14:24;;;;;;;12.93;10.82;;;8.90;65.70;;;;;;5041720;28;20910;-82
2021/03/04 00:16:51;;;;;;;16.63;11.20;;;9.00;66.10;;;;;;5052797;28;20204;-83
2021/03/04 00:19:19;;;;;;;15.65;10.45;;;8.90;65.60;;;;;;5036700;28;20204;-84
2021/03/04 00:21:47;;;;;;;13.57;10.77;;;8.90;65.30;;;;;;5039394;28;20220;-83
2021/03/04 00:24:15;;;;;;;14.60;10.90;;;8.90;65.80;;;;;;5045558;28;20677;-84
2021/03/04 00:26:42;;;;;;;15.02;10.88;;;8.80;66.10;;;;;;5050775;28;20759;-84
2021/03/04 00:29:10;;;;;;;12.43;11.10;;;8.80;66.10;;;;;;5040143;28;20270;-83
2021/03/04 00:31:37;;;;;;;12.57;10.05;;;8.90;66.10;;;;;;5033916;28;20212;-83
2021/03/04 00:34:03;;;;;;;15.65;10.73;;;8.90;65.70;;;;;;5045827;28;20197;-83
2021/03/04 00:36:31;;;;;;;14.77;11.35;;;8.90;65.50;;;;;;5033886;28;20205;-83
2021/03/04 00:38:59;;;;;;;13.00;10.50;;;8.80;65.80;;;;;;5040911;28;20686;-83
2021/03/04 00:41:25;;;;;;;12.65;10.23;;;8.80;65.70;;;;;;5032000;28;20205;-82
2021/03/04 00:43:52;;;;;;;15.98;10.98;;;8.90;65.30;;;;;;5036393;28;20712;-83
2021/03/04 00:46:18;;;;;;;15.55;10.65;;;8.90;64.80;;;;;;5044006;28;20196;-83
2021/03/04 00:48:44;;;;;;;15.90;10.65;;;8.90;65.10;;;;;;5040515;28;20197;-83
2021/03/04 00:51:11;;;;;;;11.55;9.90;;;8.80;65.90;;;;;;5032161;28;20677;-82
2021/03/04 00:53:38;;;;;;;14.43;11.70;;;8.70;66.10;;;;;;5045134;28;20197;-84
2021/03/04 00:56:05;;;;;;;12.10;9.27;;;8.70;65.50;;;;;;5054415;28;20203;-82
2021/03/04 00:58:32;;;;;;;14.02;9.32;;;8.70;64.10;;;;;;5043207;28;20204;-82
2021/03/04 01:00:58;;;;;;;13.15;10.57;;;8.70;65.10;;;;;;5031865;28;20215;-82
2021/03/04 01:03:24;;;;;;;12.23;10.70;;;8.70;65.80;;;;;;5041625;28;20732;-84
2021/03/04 01:05:51;;;;;;;14.82;9.20;;;8.60;66.60;;;;;;5031896;28;20216;-83
2021/03/04 01:08:17;;;;;;;14.98;10.80;;;8.50;66.80;;;;;;5036334;28;20239;-83
2021/03/04 01:10:44;;;;;;;14.93;9.40;;;8.60;66.60;;;;;;5037785;28;20599;-84
2021/03/04 01:13:11;;;;;;;10.73;8.98;;;8.60;66.00;;;;;;5040604;28;20219;-83
2021/03/04 01:15:37;;;;;;;11.45;9.60;;;8.70;65.60;;;;;;5033334;28;20204;-83
2021/03/04 01:18:06;;;;;;;15.60;9.35;;;8.70;64.70;;;;;;5035744;28;20614;-84
2021/03/04 01:20:33;;;;;;;13.50;10.35;;;8.70;64.00;;;;;;5051518;28;20214;-84
2021/03/04 01:23:00;;;;;;;11.75;8.55;;;8.70;63.90;;;;;;5042607;28;20213;-83
2021/03/04 01:25:26;;;;;;;14.63;9.50;;;8.70;64.20;;;;;;5046659;28;20231;-84
2021/03/04 01:27:54;;;;;;;8.98;8.05;;;8.70;64.20;;;;;;5032828;28;20232;-82
2021/03/04 01:30:24;;;;;;;12.63;9.45;;;8.80;64.10;;;;;;5051689;28;20253;-83
2021/03/04 01:32:50;;;;;;;12.57;9.80;;;8.80;64.10;;;;;;5044911;28;20303;-84
2021/03/04 01:35:17;;;;;;;10.30;8.77;;;8.70;64.00;;;;;;5051273;28;20243;-83
2021/03/04 01:37:44;;;;;;;13.07;8.85;;;8.70;64.30;;;;;;5049912;28;20227;-83
2021/03/04 01:40:12;;;;;;;11.15;8.95;;;8.70;64.60;;;;;;5033650;28;20243;-84
2021/03/04 01:42:39;;;;;;;11.52;9.40;;;8.70;64.30;;;;;;5037850;28;20591;-84
2021/03/04 01:45:07;;;;;;;11.60;9.82;;;8.70;64.10;;;;;;5049378;28;20635;-83
2021/03/04 01:47:34;;;;;;;12.75;8.88;;;8.70;64.60;;;;;;5046216;28;20535;-83
2021/03/04 01:50:01;;;;;;;9.63;8.73;;;8.70;64.40;;;;;;5050624;28;20200;-83
2021/03/04 01:52:28;;;;;;;10.48;7.78;;;8.70;64.50;;;;;;5045473;28;20492;-83
2021/03/04 01:54:55;;;;;;;14.07;10.23;;;8.60;64.30;;;;;;5034917;28;20247;-83
2021/03/04 01:57:22;;;;;;;12.85;9.63;;;8.50;64.60;;;;;;5061742;28;20200;-83
2021/03/04 01:59:48;;;;;;;22.45;10.88;;;8.50;64.60;;;;;;5032810;28;20555;-84
2021/03/04 02:02:16;;;;;;;11.80;10.65;;;8.50;65.30;;;;;;5031661;28;20212;-84
2021/03/04 02:04:43;;;;;;;14.93;9.95;;;8.50;65.40;;;;;;5042706;28;20204;-84
2021/03/04 02:07:16;;;;;;;12.48;10.50;;;8.50;65.20;;;;;;5046517;28;20192;-84
2021/03/04 02:09:58;;;;;;;12.70;10.05;;;8.40;65.00;;;;;;5046941;28;20568;-83
2021/03/04 02:12:32;;;;;;;11.38;9.95;;;8.40;65.20;;;;;;5044889;28;20624;-84
2021/03/04 02:15:07;;;;;;;13.02;10.48;;;8.40;65.00;;;;;;5043367;28;20338;-84
2021/03/04 02:17:39;;;;;;;11.65;9.18;;;8.40;65.20;;;;;;5030984;28;20223;-84
2021/03/04 02:20:08;;;;;;;12.65;11.35;;;8.30;65.10;;;;;;5049341;28;20211;-83
2021/03/04 02:22:55;;;;;;;14.35;9.10;;;8.30;65.10;;;;;;5050131;28;20238;-83
2021/03/04 02:25:30;;;;;;;12.43;9.70;;;8.30;65.30;;;;;;5030150;28;20208;-82
2021/03/04 02:28:01;;;;;;;10.88;9.23;;;8.30;65.50;;;;;;5035106;28;20293;-83
2021/03/04 02:30:33;;;;;;;10.93;9.52;;;8.20;65.40;;;;;;5050236;28;20204;-83
2021/03/04 02:33:07;;;;;;;13.05;10.20;;;8.20;65.30;;;;;;5047753;28;20220;-83
2021/03/04 02:35:36;;;;;;;12.15;10.95;;;8.10;65.10;;;;;;5031492;28;20603;-85
2021/03/04 02:38:08;;;;;;;13.25;9.75;;;8.10;65.80;;;;;;5046233;28;20227;-84
2021/03/04 02:40:38;;;;;;;15.02;9.98;;;8.10;65.90;;;;;;5030864;28;20192;-84
2021/03/04 02:43:09;;;;;;;11.77;10.07;;;8.20;65.20;;;;;;5048236;28;20207;-84
2021/03/04 02:45:38;;;;;;;12.73;10.13;;;8.10;65.30;;;;;;5039903;28;20338;-84
2021/03/04 02:48:12;;;;;;;12.57;9.75;;;8.10;65.90;;;;;;5065058;28;20432;-84
2021/03/04 02:50:41;;;;;;;11.35;9.43;;;8.10;65.60;;;;;;5050116;28;20787;-83
2021/03/04 02:53:10;;;;;;;13.25;8.90;;;8.10;65.70;;;;;;5031945;28;20216;-83
2021/03/04 02:55:38;;;;;;;13.43;9.82;;;8.10;65.90;;;;;;5038219;28;20192;-84
2021/03/04 02:58:08;;;;;;;13.82;10.10;;;8.10;66.30;;;;;;5042790;28;20579;-83
2021/03/04 03:00:36;;;;;;;12.35;9.50;;;8.10;66.50;;;;;;5050093;28;20199;-84
2021/03/04 03:03:07;;;;;;;11.70;9.00;;;8.00;66.40;;;;;;5053959;28;20710;-83
2021/03/04 03:05:37;;;;;;;18.27;10.30;;;8.10;66.10;;;;;;5056643;28;20214;-84
2021/03/04 03:08:05;;;;;;;16.40;11.13;;;8.20;66.10;;;;;;5046802;28;20486;-82
2021/03/04 03:10:34;;;;;;;11.48;10.27;;;8.20;65.90;;;;;;5033270;28;20266;-84
2021/03/04 03:13:04;;;;;;;10.60;8.27;;;8.20;65.80;;;;;;5052490;28;20572;-82
2021/03/04 03:15:32;;;;;;;10.65;8.93;;;8.20;65.60;;;;;;5033843;28;20675;-84
2021/03/04 03:17:59;;;;;;;12.13;9.23;;;8.20;65.50;;;;;;5042890;28;20196;-83
2021/03/04 03:20:27;;;;;;;14.07;9.38;;;8.30;63.80;;;;;;5049795;28;20279;-83
2021/03/04 03:22:54;;;;;;;12.07;8.77;;;8.50;65.60;;;;;;5042651;28;20262;-83
2021/03/04 03:25:21;;;;;;;11.18;9.50;;;8.40;64.90;;;;;;5044927;28;20200;-84
2021/03/04 03:27:47;;;;;;;13.00;9.13;;;8.40;65.20;;;;;;5044926;28;20197;-84
2021/03/04 03:30:17;;;;;;;12.18;9.27;;;8.30;64.80;;;;;;5028348;28;20303;-82
2021/03/04 03:32:49;;;;;;;11.73;9.80;;;8.40;64.80;;;;;;5041085;28;20216;-84
2021/03/04 03:35:17;;;;;;;15.73;9.65;;;8.40;64.70;;;;;;5031393;28;20200;-84
2021/03/04 03:37:45;;;;;;;11.25;9.40;;;8.40;64.80;;;;;;5045288;28;20201;-84
2021/03/04 03:40:15;;;;;;;10.57;8.93;;;8.30;65.10;;;;;;5031242;28;20209;-84
2021/03/04 03:42:43;;;;;;;10.98;8.63;;;8.30;65.30;;;;;;5040442;28;20206;-83
2021/03/04 03:45:18;;;;;;;17.48;9.70;;;8.30;65.50;;;;;;5036406;28;20596;-83
2021/03/04 03:47:47;;;;;;;12.25;9.95;;;8.30;65.10;;;;;;5033077;28;20602;-84
2021/03/04 03:50:16;;;;;;;14.23;10.80;;;8.30;65.80;;;;;;5040907;28;20201;-84
2021/03/04 03:52:43;;;;;;;10.77;9.50;;;8.20;65.70;;;;;;5028926;28;20620;-83
2021/03/04 03:55:11;;;;;;;11.13;10.02;;;8.20;65.60;;;;;;5049057;28;20665;-84
2021/03/04 03:57:40;;;;;;;12.15;9.73;;;8.10;65.60;;;;;;5050064;28;20212;-84
2021/03/04 04:00:09;;;;;;;11.30;9.27;;;8.10;65.70;;;;;;5029799;28;20200;-84
2021/03/04 04:02:35;;;;;;;10.45;9.35;;;8.10;65.60;;;;;;5028891;28;20540;-82
2021/03/04 04:05:04;;;;;;;12.57;9.43;;;8.10;65.50;;;;;;5029425;28;20205;-84
2021/03/04 04:07:31;;;;;;;11.77;10.27;;;8.00;65.20;;;;;;5029907;28;20201;-83
2021/03/04 04:09:58;;;;;;;10.63;9.13;;;8.00;65.10;;;;;;5047374;28;20204;-83
2021/03/04 04:12:25;;;;;;;12.00;9.07;;;8.00;65.10;;;;;;5061948;28;20277;-83
2021/03/04 04:14:52;;;;;;;13.68;10.07;;;8.00;65.10;;;;;;5048111;28;20736;-83
2021/03/04 04:17:20;;;;;;;13.10;10.10;;;7.90;65.20;;;;;;5041413;28;20201;-84
2021/03/04 04:19:47;;;;;;;11.55;9.07;;;8.00;65.50;;;;;;5041508;28;20189;-84
2021/03/04 04:22:16;;;;;;;11.30;9.48;;;8.00;65.70;;;;;;5037309;28;20250;-83
2021/03/04 04:24:44;;;;;;;12.13;8.98;;;7.90;65.40;;;;;;5041289;28;20299;-84
2021/03/04 04:27:12;;;;;;;10.73;9.07;;;7.90;65.60;;;;;;5040944;28;20204;-84
2021/03/04 04:29:38;;;;;;;11.48;9.98;;;7.90;65.80;;;;;;5035441;28;20204;-83
2021/03/04 04:32:06;;;;;;;12.50;9.60;;;7.90;65.80;;;;;;5038477;28;20310;-84
2021/03/04 04:34:32;;;;;;;11.68;9.57;;;7.90;65.40;;;;;;5051322;28;20212;-84
2021/03/04 04:36:58;;;;;;;14.93;9.55;;;7.80;65.50;;;;;;5046143;28;20331;-84
2021/03/04 04:39:26;;;;;;;13.43;9.13;;;7.80;65.70;;;;;;5045909;28;20681;-83
2021/03/04 04:41:52;;;;;;;10.90;9.60;;;7.80;65.50;;;;;;5033315;28;20204;-83
2021/03/04 04:44:18;;;;;;;14.88;9.32;;;7.70;65.60;;;;;;5044910;28;20231;-83
2021/03/04 04:46:45;;;;;;;12.20;9.30;;;7.60;66.40;;;;;;5052783;28;20207;-84
2021/03/04 04:49:11;;;;;;;13.52;9.63;;;7.50;66.60;;;;;;5050837;28;20287;-84
2021/03/04 04:51:37;;;;;;;10.85;9.00;;;7.50;66.70;;;;;;5048757;28;20205;-83
2021/03/04 04:54:04;;;;;;;13.15;9.80;;;7.50;66.60;;;;;;5037484;28;20195;-84
2021/03/04 04:56:31;;;;;;;11.38;9.02;;;7.50;66.40;;;;;;5046652;28;20656;-83
2021/03/04 04:58:57;;;;;;;12.68;9.52;;;7.50;66.40;;;;;;5040896;28;20203;-83
2021/03/04 05:01:24;;;;;;;11.85;8.50;;;7.40;66.20;;;;;;5047829;28;20684;-83
2021/03/04 05:03:50;;;;;;;12.15;9.43;;;7.40;66.20;;;;;;5041299;28;20601;-83
2021/03/04 05:06:17;;;;;;;13.32;9.40;;;7.40;66.10;;;;;;5049816;28;20203;-83
2021/03/04 05:08:43;;;;;;;13.55;9.70;;;7.40;65.80;;;;;;5042270;28;20211;-84
2021/03/04 05:11:09;;;;;;;12.73;8.65;;;7.40;65.80;;;;;;5057000;28;20259;-83
2021/03/04 05:13:37;;;;;;;25.50;10.05;;;7.30;66.00;;;;;;5064956;28;20517;-83
2021/03/04 05:16:04;;;;;;;19.60;10.27;;;7.20;66.70;;;;;;5052068;28;20207;-83
2021/03/04 05:18:30;;;;;;;13.88;9.45;;;7.10;67.00;;;;;;5033427;28;20205;-83
2021/03/04 05:20:56;;;;;;;21.35;9.50;;;7.10;67.10;;;;;;5032384;28;20263;-83
2021/03/04 05:23:23;;;;;;;14.82;9.48;;;7.10;67.10;;;;;;5049507;28;20232;-82
2021/03/04 05:25:49;;;;;;;15.93;11.55;;;7.20;67.00;;;;;;5050552;28;20673;-83
2021/03/04 05:28:15;;;;;;;20.10;10.93;;;7.30;66.50;;;;;;5041146;28;20236;-83
2021/03/04 05:30:43;;;;;;;13.90;9.82;;;7.40;65.90;;;;;;5043402;28;20205;-83
2021/03/04 05:33:09;;;;;;;14.25;10.05;;;7.40;65.40;;;;;;5031793;28;20260;-86
2021/03/04 05:35:35;;;;;;;22.52;12.82;;;7.40;65.10;;;;;;5032257;28;20213;-85
2021/03/04 05:38:02;;;;;;;24.92;12.57;;;7.50;64.80;;;;;;5046815;28;20671;-85
2021/03/04 05:40:28;;;;;;;22.75;12.05;;;7.60;64.70;;;;;;5033177;28;20296;-85
2021/03/04 05:42:57;;;;;;;20.27;11.48;;;7.60;64.40;;;;;;5031338;28;20693;-85
2021/03/04 05:45:24;;;;;;;17.85;10.88;;;7.60;64.60;;;;;;5048281;28;20208;-85
2021/03/04 05:47:53;;;;;;;28.75;13.15;;;7.60;64.50;;;;;;5050768;28;20603;-86
2021/03/04 05:50:20;;;;;;;24.92;11.70;;;7.50;64.60;;;;;;5033863;28;20231;-85
2021/03/04 05:52:50;;;;;;;19.40;11.82;;;7.50;64.60;;;;;;5044315;28;20219;-86
2021/03/04 05:55:16;;;;;;;31.92;11.30;;;7.40;64.70;;;;;;5033319;28;20200;-85
2021/03/04 05:57:45;;;;;;;37.58;11.50;;;7.40;65.00;;;;;;5040540;28;20220;-86
2021/03/04 06:00:13;;;;;;;20.52;10.45;;;7.30;65.00;;;;;;5031818;28;20258;-85
2021/03/04 06:02:42;;;;;;;21.23;11.45;;;7.20;65.40;;;;;;5032448;28;20193;-86
2021/03/04 06:05:12;;;;;;;12.50;10.20;;;7.10;65.90;;;;;;5051656;28;20208;-85
2021/03/04 06:07:43;;;;;;;18.35;10.10;;;7.10;66.10;;;;;;5050208;28;20594;-85
2021/03/04 06:10:10;;;;;;;19.45;10.75;;;7.00;66.40;;;;;;5032708;28;20200;-86
2021/03/04 06:12:37;;;;;;;16.08;9.85;;;7.00;66.20;;;;;;5070953;28;20284;-85
2021/03/04 06:15:04;;;;;;;17.58;10.27;;;6.90;66.10;;;;;;5051492;28;20286;-85
2021/03/04 06:17:31;;;;;;;20.08;10.75;;;7.00;66.50;;;;;;5044337;28;20220;-86
2021/03/04 06:20:00;;;;;;;17.90;11.98;;;7.00;66.60;;;;;;5051458;28;20200;-85
2021/03/04 06:22:29;;;;;;;17.02;10.80;;;7.00;66.40;;;;;;5043987;28;20193;-85
2021/03/04 06:24:57;;;;;;;16.85;10.32;;;7.00;66.20;;;;;;5044733;28;20323;-85
2021/03/04 06:27:29;;;;;;;20.80;11.20;;;7.00;66.00;;;;;;5048875;28;20200;-85
2021/03/04 06:29:56;;;;;;;16.85;10.77;;;7.00;65.90;;;;;;5043463;28;20211;-86
2021/03/04 06:32:23;;;;;;;21.77;10.98;;;7.10;66.40;;;;;;5042033;28;20232;-85
2021/03/04 06:35:08;;;;;;;31.38;13.95;;;7.00;66.90;;;;;;5032423;28;20211;-84
2021/03/04 06:37:37;;;;;;;26.15;13.55;;;7.00;66.80;;;;;;5031113;28;20205;-85
2021/03/04 06:40:07;;;;;;;30.88;13.63;;;7.10;66.70;;;;;;5044925;28;20290;-85
2021/03/04 06:42:41;;;;;;;31.05;13.80;;;7.10;67.50;;;;;;5050355;28;20204;-84
2021/03/04 06:45:21;;;;;;;21.40;10.57;;;7.10;66.70;;;;;;5050355;28;20244;-85
2021/03/04 06:47:47;;;;;;;23.85;10.95;;;7.20;66.50;;;;;;5049610;28;20199;-85
2021/03/04 06:50:22;;;;;;;23.23;11.50;;;7.20;66.50;;;;;;5049551;28;20294;-85
2021/03/04 06:52:49;;;;;;;28.52;12.70;;;7.30;66.50;;;;;;5049651;28;20230;-85
2021/03/04 06:55:16;;;;;;;38.83;11.10;;;7.40;66.30;;;;;;5050462;28;20295;-85
2021/03/04 06:57:58;;;;;;;37.10;13.07;;;7.40;66.80;;;;;;5051309;28;20654;-85
2021/03/04 07:00:24;;;;;;;35.90;13.25;;;7.40;66.80;;;;;;5052153;28;20858;-85
2021/03/04 07:02:52;;;;;;;24.38;12.25;;;7.60;66.60;;;;;;5051263;28;20579;-85
2021/03/04 07:05:19;;;;;;;30.17;13.00;;;7.70;66.20;;;;;;5053117;28;20318;-85
2021/03/04 07:07:51;;;;;;;21.45;10.43;;;7.80;66.00;;;;;;5053156;28;20220;-84
2021/03/04 07:10:19;;;;;;;14.40;11.02;;;7.80;65.30;;;;;;5053682;28;20204;-85
2021/03/04 07:12:47;;;;;;;20.40;12.18;;;8.00;65.90;;;;;;5035475;28;20240;-85
2021/03/04 07:15:14;;;;;;;17.00;10.93;;;8.10;65.70;;;;;;5049092;28;20211;-85
2021/03/04 07:17:43;;;;;;;25.55;13.30;;;8.30;65.40;;;;;;5028357;28;20188;-85
2021/03/04 07:20:14;;;;;;;15.73;11.45;;;8.50;65.60;;;;;;5051069;28;20570;-85
2021/03/04 07:22:44;;;;;;;14.93;10.55;;;8.60;65.50;;;;;;5034972;28;20279;-85
2021/03/04 07:25:13;;;;;;;15.70;11.00;;;8.80;65.10;;;;;;5047241;28;20307;-85
2021/03/04 07:27:40;;;;;;;14.13;10.35;;;8.90;65.40;;;;;;5036010;28;20204;-86
2021/03/04 07:30:09;;;;;;;23.55;12.48;;;8.90;64.50;;;;;;5051915;28;20211;-85
2021/03/04 07:32:36;;;;;;;18.67;10.85;;;9.00;63.90;;;;;;5050606;28;20276;-85
2021/03/04 07:35:04;;;;;;;12.75;10.55;;;9.10;62.90;;;;;;5048443;28;20200;-85
2021/03/04 07:37:31;;;;;;;12.05;10.55;;;9.20;61.90;;;;;;5050961;28;20215;-85
2021/03/04 07:39:59;;;;;;;13.90;11.68;;;9.20;60.70;;;;;;5044931;28;20193;-87
2021/03/04 07:42:27;;;;;;;14.77;10.50;;;9.40;61.00;;;;;;5030604;28;20292;-87
2021/03/04 07:44:54;;;;;;;13.90;10.68;;;9.60;60.20;;;;;;5032536;28;20235;-88
2021/03/04 07:47:25;;;;;;;16.03;11.23;;;9.90;59.60;;;;;;5030945;28;20291;-87
2021/03/04 07:49:52;;;;;;;12.83;9.53;;;10.00;58.30;;;;;;5048862;28;20618;-87
2021/03/04 07:52:19;;;;;;;12.90;10.03;;;10.20;58.30;;;;;;5053259;28;20646;-87
2021/03/04 07:54:48;;;;;;;13.67;9.50;;;10.30;57.80;;;;;;5047251;28;20712;-86
2021/03/04 07:57:16;;;;;;;13.50;10.20;;;10.30;57.10;;;;;;5052917;28;20614;-87
2021/03/04 07:59:52;;;;;;;15.70;9.33;;;10.40;57.10;;;;;;5035318;28;20638;-87
2021/03/04 08:02:23;;;;;;;16.30;9.80;;;10.60;57.30;;;;;;5035346;28;20680;-87
2021/03/04 08:04:49;;;;;;;12.17;8.73;;;10.80;56.80;;;;;;5044316;28;20714;-87
2021/03/04 08:07:24;;;;;;;15.40;9.57;;;10.90;56.00;;;;;;5054600;28;20626;-87
2021/03/04 08:09:51;;;;;;;15.03;8.30;;;10.80;54.90;;;;;;5037245;28;20626;-87
2021/03/04 08:12:18;;;;;;;15.83;9.70;;;11.00;55.80;;;;;;5070706;28;20733;-87
2021/03/04 08:14:56;;;;;;;13.10;10.27;;;11.20;55.30;;;;;;5056595;28;20984;-87
2021/03/04 08:17:23;;;;;;;14.90;8.17;;;11.10;55.30;;;;;;5050935;28;20630;-88
2021/03/04 08:19:50;;;;;;;12.37;8.13;;;10.90;53.50;;;;;;5048014;28;20642;-87
2021/03/04 08:22:21;;;;;;;13.07;7.80;;;10.80;52.20;;;;;;5053985;28;20656;-87
2021/03/04 08:24:47;;;;;;;11.67;7.60;;;10.70;51.70;;;;;;5050703;28;20729;-86
2021/03/04 08:27:14;;;;;;;12.40;9.10;;;10.60;52.20;;;;;;5053682;28;20632;-86
2021/03/04 08:29:47;;;;;;;15.33;8.70;;;10.70;52.60;;;;;;5050026;28;20618;-87
2021/03/04 08:32:16;;;;;;;13.53;8.50;;;10.60;52.40;;;;;;5053529;28;21253;-86
2021/03/04 08:34:45;;;;;;;14.30;8.20;;;10.60;52.40;;;;;;5048941;28;20618;-87
2021/03/04 08:37:23;;;;;;;11.03;7.37;;;10.70;52.40;;;;;;5051328;28;20631;-86
2021/03/04 08:39:54;;;;;;;8.93;7.70;;;10.70;51.50;;;;;;5045375;28;20609;-86
2021/03/04 08:42:21;;;;;;;11.50;7.47;;;10.80;51.40;;;;;;5049853;28;20777;-83
2021/03/04 08:44:48;;;;;;;12.90;7.80;;;11.00;51.20;;;;;;5043217;28;21024;-87
2021/03/04 08:47:17;;;;;;;10.63;7.07;;;11.30;51.00;;;;;;5051890;28;21034;-86
2021/03/04 08:49:53;;;;;;;13.17;7.50;;;11.50;51.70;;;;;;5052354;28;20618;-86
2021/03/04 08:52:23;;;;;;;16.30;9.60;;;11.60;50.20;;;;;;5051114;28;20688;-86
2021/03/04 08:54:52;;;;;;;16.97;7.80;;;11.80;50.80;;;;;;5033963;28;20619;-87
2021/03/04 08:57:23;;;;;;;10.60;8.53;;;12.20;50.70;;;;;;5035160;28;21007;-86
2021/03/04 09:00:00;;;;;;;11.53;9.37;;;12.10;49.80;;;;;;5034725;28;20613;-87
2021/03/04 09:02:27;;;;;;;10.10;8.37;;;12.00;50.50;;;;;;5035084;28;21372;-86
2021/03/04 09:04:54;;;;;;;12.27;10.17;;;12.10;50.60;;;;;;5047835;28;20618;-87
2021/03/04 09:07:29;;;;;;;15.70;8.77;;;12.40;50.40;;;;;;5046540;28;20722;-87
2021/03/04 09:09:59;;;;;;;15.37;8.30;;;12.70;50.90;;;;;;5048407;28;20671;-87
2021/03/04 09:12:26;;;;;;;12.93;7.57;;;12.70;50.40;;;;;;5051766;28;21536;-86
2021/03/04 09:14:55;;;;;;;12.17;8.10;;;12.60;50.20;;;;;;5061346;28;20624;-87
2021/03/04 09:17:22;;;;;;;10.10;7.67;;;12.50;49.70;;;;;;5072953;28;21172;-87
2021/03/04 09:19:54;;;;;;;12.57;8.90;;;12.50;50.50;;;;;;5068795;28;20618;-87
2021/03/04 09:22:21;;;;;;;13.73;8.20;;;12.20;50.00;;;;;;5056114;28;20601;-86
2021/03/04 09:24:49;;;;;;;10.33;7.60;;;12.20;51.20;;;;;;5053467;28;20960;-87
2021/03/04 09:27:17;;;;;;;14.37;8.17;;;12.20;50.90;;;;;;5064819;28;20683;-87
2021/03/04 09:29:44;;;;;;;14.67;8.20;;;12.20;50.80;;;;;;5056145;28;20605;-87
2021/03/04 09:32:11;;;;;;;9.77;7.80;;;12.50;51.40;;;;;;5059947;28;20654;-87
2021/03/04 09:34:39;;;;;;;9.70;6.70;;;12.90;50.80;;;;;;5050605;28;20655;-87
2021/03/04 09:37:16;;;;;;;13.57;7.83;;;12.80;50.00;;;;;;5051242;28;21175;-87
2021/03/04 09:39:44;;;;;;;12.83;8.70;;;12.70;50.40;;;;;;5040064;28;20619;-87
2021/03/04 09:42:16;;;;;;;12.30;8.70;;;12.60;51.00;;;;;;5042064;28;21334;-88
2021/03/04 09:44:54;;;;;;;11.47;8.50;;;12.60;50.90;;;;;;5037957;28;21204;-87
2021/03/04 09:47:26;;;;;;;11.43;8.00;;;12.50;50.60;;;;;;5042991;28;20701;-88
2021/03/04 09:49:54;;;;;;;10.77;7.77;;;12.70;50.60;;;;;;5033277;28;20624;-87
2021/03/04 09:52:23;;;;;;;13.57;8.50;;;12.90;51.10;;;;;;5034562;28;20659;-87
2021/03/04 09:54:50;;;;;;;14.20;8.30;;;12.90;51.50;;;;;;5034103;28;20668;-87
2021/03/04 09:57:19;;;;;;;11.93;8.90;;;12.80;51.80;;;;;;5032652;28;20635;-87
2021/03/04 09:59:48;;;;;;;12.40;8.77;;;13.00;51.30;;;;;;5034517;28;20630;-87
2021/03/04 10:02:15;;;;;;;13.63;8.20;;;13.10;51.00;;;;;;5033760;28;20635;-87
2021/03/04 10:04:55;;;;;;;11.27;8.17;;;13.20;51.20;;;;;;5045487;28;20614;-87
2021/03/04 10:07:27;;;;;;;16.40;8.10;;;13.10;50.10;;;;;;5052197;28;20647;-87
2021/03/04 10:09:54;;;;;;;13.87;8.17;;;13.20;51.10;;;;;;5051084;28;20622;-87
2021/03/04 10:12:27;;;;;;;16.70;8.20;;;13.30;51.50;;;;;;5037734;28;20664;-87
2021/03/04 10:14:56;;;;;;;16.87;8.23;;;13.50;51.00;;;;;;5032250;28;20616;-87
2021/03/04 10:17:24;;;;;;;11.67;7.80;;;13.30;50.20;;;;;;5033381;28;20603;-87
2021/03/04 10:19:59;;;;;;;15.47;7.80;;;13.40;51.20;;;;;;5053416;28;20627;-87
2021/03/04 10:22:26;;;;;;;12.47;8.20;;;13.30;50.30;;;;;;5054640;28;20631;-87
2021/03/04 10:24:53;;;;;;;9.93;7.50;;;13.40;50.70;;;;;;5047622;28;20643;-87
2021/03/04 10:27:21;;;;;;;11.63;7.93;;;13.30;50.80;;;;;;5054032;28;20633;-87
2021/03/04 10:29:50;;;;;;;13.20;7.83;;;13.20;50.50;;;;;;5034638;28;20609;-86
2021/03/04 10:32:19;;;;;;;9.43;7.63;;;13.50;52.10;;;;;;5032875;28;20711;-87
2021/03/04 10:34:49;;;;;;;11.43;8.23;;;13.60;51.50;;;;;;5042780;28;20745;-87
2021/03/04 10:37:15;;;;;;;10.20;8.30;;;13.80;50.50;;;;;;5051725;28;20647;-87
2021/03/04 10:39:43;;;;;;;12.63;8.53;;;13.80;50.60;;;;;;5049827;28;20607;-87
2021/03/04 10:42:09;;;;;;;18.23;8.43;;;14.00;50.60;;;;;;5048122;28;20636;-87
2021/03/04 10:44:35;;;;;;;10.80;7.77;;;14.00;51.00;;;;;;5050402;28;20658;-87
2021/03/04 10:47:02;;;;;;;11.67;9.20;;;13.90;51.10;;;;;;5054666;28;20638;-86
2021/03/04 10:49:28;;;;;;;13.53;9.00;;;13.70;51.30;;;;;;5059497;28;20599;-86
2021/03/04 10:51:55;;;;;;;12.07;9.70;;;13.70;52.00;;;;;;5059152;28;20632;-86
2021/03/04 10:54:21;;;;;;;15.63;10.47;;;14.00;52.50;;;;;;5058181;28;20637;-86
2021/03/04 10:56:48;;;;;;;16.27;8.53;;;14.00;51.80;;;;;;5060909;28;20616;-86
2021/03/04 10:59:15;;;;;;;17.80;7.80;;;14.10;51.20;;;;;;5058175;28;20681;-87
2021/03/04 11:01:41;;;;;;;9.30;7.77;;;14.40;50.70;;;;;;5064986;28;20962;-87
2021/03/04 11:04:08;;;;;;;18.43;9.40;;;14.50;51.10;;;;;;5058392;28;20937;-86
2021/03/04 11:06:34;;;;;;;19.20;8.43;;;14.40;50.70;;;;;;5066114;28;21071;-85
2021/03/04 11:09:01;;;;;;;15.50;8.47;;;14.60;50.40;;;;;;5044826;28;20776;-86
2021/03/04 11:11:28;;;;;;;14.73;9.93;;;14.60;50.40;;;;;;5055522;28;20620;-85
2021/03/04 11:13:55;;;;;;;17.27;10.70;;;14.60;50.90;;;;;;5059330;28;20686;-86
2021/03/04 11:16:23;;;;;;;20.63;10.10;;;14.70;51.00;;;;;;5054005;28;20751;-86
2021/03/04 11:18:49;;;;;;;14.23;9.40;;;14.70;51.00;;;;;;5061497;28;20199;-86
2021/03/04 11:21:16;;;;;;;13.30;9.70;;;14.90;51.20;;;;;;5068016;28;20691;-86
2021/03/04 11:23:42;;;;;;;13.53;8.50;;;15.10;51.30;;;;;;5054883;28;20750;-86
2021/03/04 11:26:09;;;;;;;12.03;8.30;;;15.20;51.30;;;;;;5066171;28;20649;-86
2021/03/04 11:28:36;;;;;;;14.13;9.40;;;15.70;51.30;;;;;;5055176;28;20667;-86
2021/03/04 11:31:03;;;;;;;11.83;9.73;;;15.10;49.20;;;;;;5061765;28;20614;-86
2021/03/04 11:33:30;;;;;;;14.57;9.40;;;15.20;50.30;;;;;;5047398;28;20653;-85
2021/03/04 11:35:57;;;;;;;16.37;8.60;;;15.90;50.30;;;;;;5048540;28;20610;-86
2021/03/04 11:38:23;;;;;;;16.50;8.73;;;16.40;49.80;;;;;;5049484;28;20614;-86
2021/03/04 11:40:50;;;;;;;18.13;10.70;;;16.70;49.30;;;;;;5061472;28;20992;-86
2021/03/04 11:43:16;;;;;;;17.50;9.63;;;16.90;49.30;;;;;;5056832;28;20739;-86
2021/03/04 11:45:43;;;;;;;16.23;9.30;;;16.30;48.90;;;;;;5049489;28;20614;-86
2021/03/04 11:48:11;;;;;;;12.67;10.30;;;15.80;49.30;;;;;;5052072;28;21002;-86
2021/03/04 11:50:37;;;;;;;10.40;8.80;;;15.30;48.90;;;;;;5050907;28;20614;-86
2021/03/04 11:53:05;;;;;;;11.27;9.27;;;15.80;49.90;;;;;;5044171;28;20649;-87
2021/03/04 11:55:32;;;;;;;14.23;9.63;;;15.70;49.40;;;;;;5049848;28;20634;-86
2021/03/04 11:57:59;;;;;;;20.20;10.57;;;15.80;49.20;;;;;;5050387;28;21040;-86
2021/03/04 12:00:25;;;;;;;19.47;10.40;;;15.50;49.50;;;;;;5034750;28;20629;-88
2021/03/04 12:02:52;;;;;;;18.23;8.93;;;15.60;49.70;;;;;;5040377;28;20623;-86
2021/03/04 12:05:19;;;;;;;11.93;10.07;;;15.60;50.10;;;;;;5030161;28;20611;-87
2021/03/04 12:07:46;;;;;;;15.30;9.40;;;15.50;49.80;;;;;;5044940;28;21513;-87
2021/03/04 12:10:14;;;;;;;16.20;9.87;;;15.10;48.90;;;;;;5050561;28;20621;-87
2021/03/04 12:12:41;;;;;;;17.00;9.83;;;15.50;49.60;;;;;;5054502;28;21480;-87
2021/03/04 12:15:09;;;;;;;15.00;8.23;;;15.70;49.10;;;;;;5042932;28;20769;-87
2021/03/04 12:17:35;;;;;;;15.60;9.17;;;15.80;49.00;;;;;;5030356;28;20631;-86
2021/03/04 12:20:02;;;;;;;14.93;9.40;;;15.40;47.90;;;;;;5034072;28;20630;-86
2021/03/04 12:22:30;;;;;;;11.80;8.70;;;15.50;48.30;;;;;;5029983;28;20611;-87
2021/03/04 12:24:56;;;;;;;16.23;9.53;;;16.10;48.40;;;;;;5030802;28;20625;-86
2021/03/04 12:27:23;;;;;;;14.77;9.67;;;16.50;48.90;;;;;;5029419;28;20623;-86
2021/03/04 12:29:49;;;;;;;10.20;8.47;;;16.80;48.30;;;;;;5039946;28;20634;-86
2021/03/04 12:32:16;;;;;;;15.60;8.90;;;16.20;48.30;;;;;;5049262;28;20982;-86
2021/03/04 12:34:43;;;;;;;15.77;8.83;;;16.10;47.60;;;;;;5040750;28;20642;-86
2021/03/04 12:37:09;;;;;;;14.83;9.00;;;15.80;47.40;;;;;;5029606;28;20657;-86
2021/03/04 12:39:36;;;;;;;12.73;8.90;;;15.90;48.20;;;;;;5039974;28;20622;-87
2021/03/04 12:42:03;;;;;;;13.27;9.53;;;15.90;48.50;;;;;;5053088;28;20620;-86
2021/03/04 12:44:29;;;;;;;13.17;8.13;;;16.00;47.90;;;;;;5047709;28;20607;-86
2021/03/04 12:46:59;;;;;;;10.83;8.33;;;16.20;47.80;;;;;;5034494;28;20655;-87